Time;durP1;ratioP1;P1;durP2;ratioP2;P2;SDS_P1;SDS_P2;PMS_P1;PMS_P2;Temp;Humidity;BMP_temperature;BMP_pressure;BME280_temperature;BME280_humidity;BME280_pressure;Samples;Min_cycle;Max_cycle;Signal;HPM_P1;HPM_P2
2022/10/28 00:01:13;;;;;;;;;5.20;5.00;;;;;;;;5000122;28;8890;-74
2022/10/28 00:03:42;;;;;;;;;4.80;4.80;;;;;;;;4998987;28;9591;-76
2022/10/28 00:06:11;;;;;;;;;4.20;4.20;;;;;;;;5001799;28;8852;-76
2022/10/28 00:08:39;;;;;;;;;3.40;3.40;;;;;;;;5001158;28;8852;-76
2022/10/28 00:11:10;;;;;;;;;3.40;2.00;;;;;;;;5000939;28;8868;-76
2022/10/28 00:13:38;;;;;;;;;7.75;5.00;;;;;;;;4999531;28;8864;-76
2022/10/28 00:16:07;;;;;;;;;5.40;5.40;;;;;;;;5016672;28;8886;-76
2022/10/28 00:18:35;;;;;;;;;4.25;4.25;;;;;;;;4988633;28;8851;-75
2022/10/28 00:21:03;;;;;;;;;5.50;5.50;;;;;;;;4962802;28;9291;-75
2022/10/28 00:23:32;;;;;;;;;5.00;2.00;;;;;;;;4980550;28;8885;-76
2022/10/28 00:26:07;;;;;;;;;5.25;5.25;;;;;;;;4981728;28;8840;-76
2022/10/28 00:28:35;;;;;;;;;3.00;3.00;;;;;;;;4981264;28;8863;-76
2022/10/28 00:31:09;;;;;;;;;5.00;5.00;;;;;;;;4982280;28;8862;-76
2022/10/28 00:33:36;;;;;;;;;5.75;5.00;;;;;;;;4984284;28;8865;-73
2022/10/28 00:36:12;;;;;;;;;3.25;3.25;;;;;;;;4985064;28;9616;-76
2022/10/28 00:38:41;;;;;;;;;5.00;3.50;;;;;;;;4983152;28;8822;-75
2022/10/28 00:41:11;;;;;;;;;3.25;3.25;;;;;;;;4967707;28;8882;-76
2022/10/28 00:43:41;;;;;;;;;5.25;5.25;;;;;;;;4985143;28;8877;-75
2022/10/28 00:46:18;;;;;;;;;5.25;3.50;;;;;;;;4985215;28;8843;-76
2022/10/28 00:48:48;;;;;;;;;5.00;5.00;;;;;;;;4985291;28;8877;-75
2022/10/28 00:51:17;;;;;;;;;6.50;5.00;;;;;;;;4984612;28;8881;-75
2022/10/28 00:53:47;;;;;;;;;4.00;3.25;;;;;;;;4966792;28;8870;-75
2022/10/28 00:56:17;;;;;;;;;5.25;3.75;;;;;;;;4968091;28;8867;-75
2022/10/28 00:58:45;;;;;;;;;6.75;5.00;;;;;;;;4982334;28;8869;-75
2022/10/28 01:01:12;;;;;;;;;5.50;4.00;;;;;;;;4968620;28;9236;-75
2022/10/28 01:03:40;;;;;;;;;4.75;4.75;;;;;;;;4965810;28;8850;-76
2022/10/28 01:06:08;;;;;;;;;4.75;4.75;;;;;;;;4985534;28;8862;-75
2022/10/28 01:08:35;;;;;;;;;4.50;4.00;;;;;;;;4982309;28;8839;-75
2022/10/28 01:11:35;;;;;;;;;5.00;4.00;;;;;;;;4988273;28;8861;-75
2022/10/28 01:14:18;;;;;;;;;4.25;4.25;;;;;;;;4983318;28;8832;-76
2022/10/28 01:16:58;;;;;;;;;5.25;4.00;;;;;;;;4982903;28;8846;-77
2022/10/28 01:20:00;;;;;;;;;4.75;4.75;;;;;;;;4985528;28;8896;-76
2022/10/28 01:22:32;;;;;;;;;4.25;4.25;;;;;;;;4982726;28;8877;-76
2022/10/28 01:25:27;;;;;;;;;4.75;4.50;;;;;;;;4983493;28;9695;-76
2022/10/28 01:28:13;;;;;;;;;5.00;4.25;;;;;;;;4981086;28;8859;-76
2022/10/28 01:31:15;;;;;;;;;4.00;3.00;;;;;;;;4983090;28;8847;-76
2022/10/28 01:33:48;;;;;;;;;7.75;4.75;;;;;;;;4922117;28;8853;-76
2022/10/28 01:36:17;;;;;;;;;4.50;4.50;;;;;;;;4956672;28;8866;-76
2022/10/28 01:38:50;;;;;;;;;5.00;4.00;;;;;;;;4982415;28;8861;-76
2022/10/28 01:41:22;;;;;;;;;4.75;4.25;;;;;;;;4981213;28;8879;-76
2022/10/28 01:43:55;;;;;;;;;1.75;1.75;;;;;;;;4981166;28;9565;-75
2022/10/28 01:46:27;;;;;;;;;4.75;4.50;;;;;;;;4982613;28;8862;-76
2022/10/28 01:48:59;;;;;;;;;4.50;3.50;;;;;;;;4963767;28;8839;-75
2022/10/28 01:51:31;;;;;;;;;5.75;3.75;;;;;;;;4982991;28;8864;-76
2022/10/28 01:54:00;;;;;;;;;6.00;4.50;;;;;;;;4983072;28;8835;-76
2022/10/28 01:56:30;;;;;;;;;4.00;3.00;;;;;;;;4964149;28;8872;-78
2022/10/28 01:59:00;;;;;;;;;5.00;3.25;;;;;;;;4981952;28;8878;-76
2022/10/28 02:01:29;;;;;;;;;3.50;3.50;;;;;;;;4981255;28;8823;-76
2022/10/28 02:03:58;;;;;;;;;6.25;5.00;;;;;;;;4963623;28;8859;-76
2022/10/28 02:06:29;;;;;;;;;4.00;4.00;;;;;;;;4980562;28;8819;-76
2022/10/28 02:09:15;;;;;;;;;4.50;4.00;;;;;;;;4982334;28;8866;-76
2022/10/28 02:12:07;;;;;;;;;3.75;3.75;;;;;;;;4982961;28;8840;-76
2022/10/28 02:14:46;;;;;;;;;5.25;5.25;;;;;;;;4981370;28;8897;-76
2022/10/28 02:17:20;;;;;;;;;4.00;4.00;;;;;;;;4985276;28;9677;-76
2022/10/28 02:19:54;;;;;;;;;5.00;3.25;;;;;;;;5000259;28;8868;-76
2022/10/28 02:22:27;;;;;;;;;5.25;5.25;;;;;;;;5000429;28;8847;-74
2022/10/28 02:25:05;;;;;;;;;4.25;4.25;;;;;;;;5000836;28;8873;-76
2022/10/28 02:27:36;;;;;;;;;8.00;4.75;;;;;;;;4983872;28;8904;-76
2022/10/28 02:30:07;;;;;;;;;5.75;5.75;;;;;;;;4999814;28;8839;-76
2022/10/28 02:32:38;;;;;;;;;7.00;5.25;;;;;;;;5000837;28;8844;-76
2022/10/28 02:35:10;;;;;;;;;3.00;3.00;;;;;;;;5002702;28;8855;-76
2022/10/28 02:37:40;;;;;;;;;6.25;5.00;;;;;;;;4984896;28;8974;-76
2022/10/28 02:40:10;;;;;;;;;3.00;3.00;;;;;;;;4998340;28;8851;-76
2022/10/28 02:42:40;;;;;;;;;4.50;4.00;;;;;;;;5001637;28;8855;-76
2022/10/28 02:45:12;;;;;;;;;4.00;4.00;;;;;;;;5001680;28;8859;-76
2022/10/28 02:47:43;;;;;;;;;4.00;4.00;;;;;;;;4999994;28;8860;-76
2022/10/28 02:50:18;;;;;;;;;5.75;4.75;;;;;;;;5003215;28;8967;-76
2022/10/28 02:52:49;;;;;;;;;4.00;4.00;;;;;;;;5000042;28;8862;-76
2022/10/28 02:55:17;;;;;;;;;6.25;4.00;;;;;;;;5001592;28;9309;-76
2022/10/28 02:57:48;;;;;;;;;5.00;3.25;;;;;;;;5002840;28;8861;-75
2022/10/28 03:00:18;;;;;;;;;4.00;4.00;;;;;;;;4998534;28;8843;-76
2022/10/28 03:02:45;;;;;;;;;6.00;4.25;;;;;;;;5000728;28;8859;-75
2022/10/28 03:05:14;;;;;;;;;4.50;3.25;;;;;;;;5002062;28;9700;-76
2022/10/28 03:07:41;;;;;;;;;4.00;3.00;;;;;;;;4983888;28;8858;-75
2022/10/28 03:10:10;;;;;;;;;3.00;3.00;;;;;;;;4999697;28;8850;-75
2022/10/28 03:12:37;;;;;;;;;3.75;3.75;;;;;;;;5002670;28;8925;-76
2022/10/28 03:15:05;;;;;;;;;3.50;3.50;;;;;;;;4984934;28;9803;-76
2022/10/28 03:17:33;;;;;;;;;3.00;3.00;;;;;;;;4986395;28;8895;-76
2022/10/28 03:20:00;;;;;;;;;5.00;4.50;;;;;;;;5000556;28;8887;-76
2022/10/28 03:22:29;;;;;;;;;3.50;3.00;;;;;;;;5001503;28;8902;-76
2022/10/28 03:24:57;;;;;;;;;5.75;4.75;;;;;;;;5000858;28;8876;-76
2022/10/28 03:27:24;;;;;;;;;6.75;4.00;;;;;;;;5004493;28;8894;-75
2022/10/28 03:29:52;;;;;;;;;6.25;5.25;;;;;;;;5000399;28;8870;-76
2022/10/28 03:32:19;;;;;;;;;2.75;2.75;;;;;;;;5002617;28;8860;-75
2022/10/28 03:34:47;;;;;;;;;6.00;4.00;;;;;;;;5016849;28;8836;-76
2022/10/28 03:37:15;;;;;;;;;4.00;4.00;;;;;;;;5000887;28;8970;-77
2022/10/28 03:39:43;;;;;;;;;6.75;6.25;;;;;;;;4999417;28;9648;-76
2022/10/28 03:42:11;;;;;;;;;5.00;5.00;;;;;;;;5000249;28;8880;-75
2022/10/28 03:44:39;;;;;;;;;4.75;4.75;;;;;;;;5000171;28;8852;-76
2022/10/28 03:47:06;;;;;;;;;4.00;4.00;;;;;;;;4997261;28;8855;-75
2022/10/28 03:49:34;;;;;;;;;8.50;5.50;;;;;;;;5000938;28;8900;-75
2022/10/28 03:52:01;;;;;;;;;6.50;4.00;;;;;;;;5014585;28;9733;-76
2022/10/28 03:54:28;;;;;;;;;5.00;5.00;;;;;;;;4999303;28;9665;-76
2022/10/28 03:56:57;;;;;;;;;3.00;3.00;;;;;;;;4999301;28;8848;-75
2022/10/28 03:59:27;;;;;;;;;5.75;4.00;;;;;;;;5001698;28;8849;-76
2022/10/28 04:01:54;;;;;;;;;4.75;4.75;;;;;;;;5002332;28;8848;-75
2022/10/28 04:04:22;;;;;;;;;4.25;3.50;;;;;;;;5003125;28;8852;-75
2022/10/28 04:06:49;;;;;;;;;5.50;5.50;;;;;;;;5003328;28;8872;-75
2022/10/28 04:09:17;;;;;;;;;3.25;3.25;;;;;;;;4986533;28;8894;-75
2022/10/28 04:11:47;;;;;;;;;5.00;4.50;;;;;;;;5004090;28;8852;-75
2022/10/28 04:14:16;;;;;;;;;4.00;4.00;;;;;;;;5003366;28;8852;-76
2022/10/28 04:16:43;;;;;;;;;6.75;4.75;;;;;;;;5005293;28;8910;-76
2022/10/28 04:19:11;;;;;;;;;8.00;6.00;;;;;;;;5005086;28;8901;-76
2022/10/28 04:21:39;;;;;;;;;7.75;5.00;;;;;;;;5005564;28;8866;-76
2022/10/28 04:24:06;;;;;;;;;7.00;5.00;;;;;;;;5003588;28;9005;-76
2022/10/28 04:26:34;;;;;;;;;4.25;4.25;;;;;;;;5005730;28;8839;-75
2022/10/28 04:29:01;;;;;;;;;5.00;5.00;;;;;;;;5003675;28;8881;-75
2022/10/28 04:31:30;;;;;;;;;0.00;0.00;;;;;;;;5005090;28;8882;-76
2022/10/28 04:33:58;;;;;;;;;3.75;3.50;;;;;;;;5002223;28;8859;-75
2022/10/28 04:36:25;;;;;;;;;8.00;4.75;;;;;;;;5003053;28;8893;-76
2022/10/28 04:38:53;;;;;;;;;4.75;3.75;;;;;;;;4986371;28;8846;-76
2022/10/28 04:41:20;;;;;;;;;3.50;3.50;;;;;;;;4987163;28;8908;-75
2022/10/28 04:43:48;;;;;;;;;4.25;3.75;;;;;;;;5004573;28;8872;-76
2022/10/28 04:46:15;;;;;;;;;3.00;3.00;;;;;;;;4987248;28;8872;-76
2022/10/28 04:48:44;;;;;;;;;4.75;4.75;;;;;;;;4986269;28;8870;-76
2022/10/28 04:51:11;;;;;;;;;3.25;3.25;;;;;;;;5003326;28;9598;-76
2022/10/28 04:53:39;;;;;;;;;5.25;4.00;;;;;;;;4986016;28;8863;-76
2022/10/28 04:56:06;;;;;;;;;6.00;2.75;;;;;;;;5003620;28;8862;-76
2022/10/28 04:58:34;;;;;;;;;4.75;4.75;;;;;;;;5002418;28;8859;-76
2022/10/28 05:01:06;;;;;;;;;7.75;4.25;;;;;;;;4984861;28;9752;-76
2022/10/28 05:03:33;;;;;;;;;4.50;4.50;;;;;;;;4983577;28;8858;-75
2022/10/28 05:06:03;;;;;;;;;6.50;4.75;;;;;;;;4970498;28;8902;-76
2022/10/28 05:08:30;;;;;;;;;5.00;4.50;;;;;;;;4986877;28;9660;-77
2022/10/28 05:10:57;;;;;;;;;3.50;3.50;;;;;;;;5003281;28;8852;-76
2022/10/28 05:13:25;;;;;;;;;5.25;4.00;;;;;;;;5004129;28;8867;-77
2022/10/28 05:15:52;;;;;;;;;4.75;4.75;;;;;;;;5003962;28;8835;-77
2022/10/28 05:18:21;;;;;;;;;4.00;3.75;;;;;;;;5002793;28;8867;-77
2022/10/28 05:20:53;;;;;;;;;6.25;4.50;;;;;;;;4988669;28;8854;-76
2022/10/28 05:23:22;;;;;;;;;5.25;3.50;;;;;;;;5004068;28;8831;-75
2022/10/28 05:25:50;;;;;;;;;4.75;4.75;;;;;;;;5004281;28;8940;-76
2022/10/28 05:28:17;;;;;;;;;4.25;4.25;;;;;;;;4986027;28;8843;-76
2022/10/28 05:30:45;;;;;;;;;5.50;5.25;;;;;;;;4985121;28;8859;-74
2022/10/28 05:33:12;;;;;;;;;6.00;4.25;;;;;;;;5001093;28;8851;-74
2022/10/28 05:35:40;;;;;;;;;4.25;2.00;;;;;;;;5002603;28;8880;-76
2022/10/28 05:38:08;;;;;;;;;4.50;4.00;;;;;;;;4985065;28;8884;-76
2022/10/28 05:40:38;;;;;;;;;6.50;5.00;;;;;;;;5002911;28;9625;-76
2022/10/28 05:43:08;;;;;;;;;6.25;6.25;;;;;;;;5002725;28;9739;-76
2022/10/28 05:45:35;;;;;;;;;5.75;3.75;;;;;;;;4984277;28;8879;-77
2022/10/28 05:48:03;;;;;;;;;5.75;4.50;;;;;;;;5000176;28;8855;-76
2022/10/28 05:50:30;;;;;;;;;5.00;4.25;;;;;;;;5001662;28;8946;-76
2022/10/28 05:52:58;;;;;;;;;3.00;3.00;;;;;;;;5003608;28;8921;-76
2022/10/28 05:55:28;;;;;;;;;4.00;4.00;;;;;;;;5003132;28;8969;-76
2022/10/28 05:57:57;;;;;;;;;5.00;5.00;;;;;;;;5004482;28;8881;-76
2022/10/28 06:00:26;;;;;;;;;5.00;5.00;;;;;;;;5001940;28;8855;-76
2022/10/28 06:02:53;;;;;;;;;4.75;4.75;;;;;;;;4988113;28;8875;-76
2022/10/28 06:05:21;;;;;;;;;6.00;4.50;;;;;;;;5003844;28;8843;-75
2022/10/28 06:07:48;;;;;;;;;3.75;3.75;;;;;;;;5002039;28;8852;-78
2022/10/28 06:10:16;;;;;;;;;5.00;3.00;;;;;;;;5013307;28;8910;-75
2022/10/28 06:12:44;;;;;;;;;4.00;4.00;;;;;;;;5002618;28;8877;-79
2022/10/28 06:15:13;;;;;;;;;5.25;4.50;;;;;;;;5002155;28;8839;-77
2022/10/28 06:17:40;;;;;;;;;3.00;3.00;;;;;;;;5012229;28;8858;-77
2022/10/28 06:20:09;;;;;;;;;6.00;4.75;;;;;;;;5002905;28;8889;-78
2022/10/28 06:22:36;;;;;;;;;4.00;4.00;;;;;;;;4985533;28;9010;-77
2022/10/28 06:25:05;;;;;;;;;5.25;5.00;;;;;;;;4988613;28;8827;-78
2022/10/28 06:27:32;;;;;;;;;6.00;4.25;;;;;;;;5006731;28;8827;-78
2022/10/28 06:30:00;;;;;;;;;6.00;6.00;;;;;;;;5005880;28;8945;-76
2022/10/28 06:32:29;;;;;;;;;8.00;6.00;;;;;;;;5001259;28;8977;-78
2022/10/28 06:34:56;;;;;;;;;4.00;4.00;;;;;;;;5002772;28;8882;-77
2022/10/28 06:37:23;;;;;;;;;4.25;4.00;;;;;;;;4985064;28;8835;-78
2022/10/28 06:39:52;;;;;;;;;7.00;4.00;;;;;;;;5001460;28;8985;-74
2022/10/28 06:42:20;;;;;;;;;4.75;4.75;;;;;;;;5000628;28;9617;-75
2022/10/28 06:44:48;;;;;;;;;4.75;4.75;;;;;;;;4980742;28;8888;-75
2022/10/28 06:47:15;;;;;;;;;4.00;4.00;;;;;;;;4998752;28;8877;-74
2022/10/28 06:49:44;;;;;;;;;6.50;3.25;;;;;;;;5000507;28;9246;-73
2022/10/28 06:52:12;;;;;;;;;4.00;4.00;;;;;;;;5001091;28;8844;-74
2022/10/28 06:54:39;;;;;;;;;7.00;5.00;;;;;;;;5002030;28;8885;-74
2022/10/28 06:57:08;;;;;;;;;5.25;3.75;;;;;;;;5000311;28;8981;-73
2022/10/28 06:59:36;;;;;;;;;4.25;4.25;;;;;;;;5000716;28;8828;-73
2022/10/28 07:02:03;;;;;;;;;5.75;5.75;;;;;;;;5001433;28;8851;-74
2022/10/28 07:07:41;;;;;;;;;4.50;4.50;;;;;;;;4985069;28;8983;-74
2022/10/28 07:10:09;;;;;;;;;5.50;4.00;;;;;;;;5001932;28;8839;-73
2022/10/28 07:12:36;;;;;;;;;5.75;5.00;;;;;;;;4983887;28;8887;-75
2022/10/28 07:15:05;;;;;;;;;5.00;5.00;;;;;;;;4999132;28;8928;-75
2022/10/28 07:17:32;;;;;;;;;6.00;5.50;;;;;;;;4984934;28;8872;-76
2022/10/28 07:19:59;;;;;;;;;6.50;5.25;;;;;;;;5001408;28;8880;-75
2022/10/28 07:22:27;;;;;;;;;5.00;5.00;;;;;;;;5000387;28;8848;-76
2022/10/28 07:24:55;;;;;;;;;6.75;5.25;;;;;;;;4999965;28;8896;-74
2022/10/28 07:27:23;;;;;;;;;4.00;4.00;;;;;;;;5000332;28;8864;-74
2022/10/28 07:29:50;;;;;;;;;4.75;4.75;;;;;;;;4999816;28;8849;-76
2022/10/28 07:32:17;;;;;;;;;5.00;4.00;;;;;;;;5000676;28;8880;-75
2022/10/28 07:34:45;;;;;;;;;6.25;4.75;;;;;;;;5000196;28;8967;-75
2022/10/28 07:37:12;;;;;;;;;3.75;3.75;;;;;;;;4998070;28;8859;-75
2022/10/28 07:39:40;;;;;;;;;4.00;4.00;;;;;;;;4997599;28;8846;-74
2022/10/28 07:42:09;;;;;;;;;3.00;3.00;;;;;;;;4999902;28;8883;-75
2022/10/28 07:44:36;;;;;;;;;5.25;5.25;;;;;;;;5006270;28;9007;-71
2022/10/28 07:47:04;;;;;;;;;5.25;4.75;;;;;;;;5001444;28;8884;-73
2022/10/28 07:49:31;;;;;;;;;6.00;6.00;;;;;;;;5002580;28;8856;-72
2022/10/28 07:51:58;;;;;;;;;7.00;6.00;;;;;;;;5000494;28;8884;-72
2022/10/28 07:54:26;;;;;;;;;6.50;5.00;;;;;;;;5002157;28;9018;-72
2022/10/28 07:56:53;;;;;;;;;3.75;3.75;;;;;;;;5002266;28;8844;-74
2022/10/28 07:59:24;;;;;;;;;4.50;4.00;;;;;;;;5005366;28;8832;-75
2022/10/28 08:01:51;;;;;;;;;4.50;4.50;;;;;;;;4997188;28;8821;-75
2022/10/28 08:04:19;;;;;;;;;6.75;4.75;;;;;;;;5005917;28;8864;-74
2022/10/28 08:06:46;;;;;;;;;4.25;4.25;;;;;;;;5001065;28;8868;-74
2022/10/28 08:09:13;;;;;;;;;6.00;4.80;;;;;;;;4999370;28;8872;-75
2022/10/28 08:11:41;;;;;;;;;4.80;4.40;;;;;;;;5018810;28;8885;-74
2022/10/28 08:14:11;;;;;;;;;4.80;4.80;;;;;;;;5003853;28;8871;-75
2022/10/28 08:16:40;;;;;;;;;4.60;4.60;;;;;;;;5003354;28;8851;-75
2022/10/28 08:19:07;;;;;;;;;8.40;4.80;;;;;;;;5021934;28;8876;-75
2022/10/28 08:21:35;;;;;;;;;6.00;5.00;;;;;;;;5003152;28;8849;-76
2022/10/28 08:24:03;;;;;;;;;6.60;5.20;;;;;;;;5001343;28;9758;-75
2022/10/28 08:26:32;;;;;;;;;5.20;4.00;;;;;;;;5002443;28;8833;-74
2022/10/28 08:29:00;;;;;;;;;7.40;5.00;;;;;;;;5000671;28;8872;-75
2022/10/28 08:31:27;;;;;;;;;5.60;4.00;;;;;;;;5005416;28;8860;-75
2022/10/28 08:33:56;;;;;;;;;8.00;6.60;;;;;;;;5002571;28;8907;-76
2022/10/28 08:36:23;;;;;;;;;5.80;2.00;;;;;;;;5005197;28;8866;-76
2022/10/28 08:38:51;;;;;;;;;2.80;2.80;;;;;;;;5005539;28;8856;-73
2022/10/28 08:41:29;;;;;;;;;4.60;4.60;;;;;;;;5004055;28;8890;-74
2022/10/28 08:44:33;;;;;;;;;4.60;4.60;;;;;;;;5005980;28;8872;-74
2022/10/28 08:47:10;;;;;;;;;8.20;5.40;;;;;;;;5003973;28;8841;-73
2022/10/28 08:49:41;;;;;;;;;4.40;4.20;;;;;;;;5005374;28;8864;-73
2022/10/28 08:52:17;;;;;;;;;7.00;5.60;;;;;;;;5003881;28;8876;-73
2022/10/28 08:54:49;;;;;;;;;7.20;5.40;;;;;;;;5003178;28;8852;-73
2022/10/28 08:57:19;;;;;;;;;6.60;5.80;;;;;;;;5004933;28;8868;-73
2022/10/28 08:59:48;;;;;;;;;8.40;4.60;;;;;;;;5018733;28;8865;-73
2022/10/28 09:02:21;;;;;;;;;5.00;5.00;;;;;;;;5004417;28;8861;-73
2022/10/28 09:04:55;;;;;;;;;6.60;5.40;;;;;;;;5005424;28;8880;-73
2022/10/28 09:07:23;;;;;;;;;7.60;7.00;;;;;;;;5020360;28;8963;-73
2022/10/28 09:09:51;;;;;;;;;9.40;5.60;;;;;;;;5005242;28;8860;-73
2022/10/28 09:12:28;;;;;;;;;4.80;4.80;;;;;;;;4989005;28;8872;-75
2022/10/28 09:15:14;;;;;;;;;6.80;5.00;;;;;;;;5003970;28;8900;-76
2022/10/28 09:17:50;;;;;;;;;6.60;5.60;;;;;;;;5002328;28;8897;-76
2022/10/28 09:20:21;;;;;;;;;6.80;4.40;;;;;;;;4985570;28;8831;-76
2022/10/28 09:22:56;;;;;;;;;7.00;4.00;;;;;;;;5003425;28;8849;-75
2022/10/28 09:25:29;;;;;;;;;4.00;3.20;;;;;;;;5005160;28;8863;-73
2022/10/28 09:28:07;;;;;;;;;4.00;4.00;;;;;;;;5004120;28;8859;-73
2022/10/28 09:30:44;;;;;;;;;5.60;5.60;;;;;;;;5004563;28;8843;-75
2022/10/28 09:33:28;;;;;;;;;7.20;5.60;;;;;;;;5004536;28;8875;-75
2022/10/28 09:35:58;;;;;;;;;5.60;4.00;;;;;;;;5003190;28;8978;-74
2022/10/28 09:38:28;;;;;;;;;4.80;4.60;;;;;;;;5004175;28;8854;-75
2022/10/28 09:41:00;;;;;;;;;5.60;5.40;;;;;;;;4987378;28;8903;-74
2022/10/28 09:43:30;;;;;;;;;5.00;4.80;;;;;;;;4987707;28;8831;-75
2022/10/28 09:46:02;;;;;;;;;6.40;5.40;;;;;;;;5004194;28;8867;-74
2022/10/28 09:48:34;;;;;;;;;6.40;6.00;;;;;;;;5004719;28;8898;-74
2022/10/28 09:51:04;;;;;;;;;7.60;4.00;;;;;;;;5005709;28;9002;-75
2022/10/28 09:53:44;;;;;;;;;8.00;6.40;;;;;;;;5004763;28;8843;-78
2022/10/28 09:56:13;;;;;;;;;6.80;5.80;;;;;;;;5006995;28;8906;-75
2022/10/28 09:58:48;;;;;;;;;8.00;6.00;;;;;;;;4986690;28;8958;-73
2022/10/28 10:01:18;;;;;;;;;7.00;7.00;;;;;;;;4999712;28;8852;-75
2022/10/28 10:03:54;;;;;;;;;6.40;6.40;;;;;;;;5000693;28;8867;-75
2022/10/28 10:06:28;;;;;;;;;5.60;4.80;;;;;;;;5003451;28;8854;-77
2022/10/28 10:08:56;;;;;;;;;4.80;4.80;;;;;;;;5001415;28;8860;-77
2022/10/28 10:11:29;;;;;;;;;5.80;5.00;;;;;;;;5001759;28;8863;-75
2022/10/28 10:13:59;;;;;;;;;5.00;5.00;;;;;;;;5002575;28;8856;-73
2022/10/28 10:16:38;;;;;;;;;8.20;4.80;;;;;;;;5004358;28;9962;-73
2022/10/28 10:19:08;;;;;;;;;2.60;2.60;;;;;;;;5003125;28;8970;-73
2022/10/28 10:21:53;;;;;;;;;6.80;6.80;;;;;;;;5004113;28;9586;-74
2022/10/28 10:24:25;;;;;;;;;7.20;6.20;;;;;;;;4999499;28;8876;-74
2022/10/28 10:26:53;;;;;;;;;6.40;4.80;;;;;;;;5000931;28;8843;-74
2022/10/28 10:29:22;;;;;;;;;8.20;5.40;;;;;;;;5002730;28;8849;-73
2022/10/28 10:31:49;;;;;;;;;8.80;7.20;;;;;;;;4986095;28;8860;-73
2022/10/28 10:34:23;;;;;;;;;4.20;4.20;;;;;;;;5003596;28;8890;-73
2022/10/28 10:36:54;;;;;;;;;6.40;6.40;;;;;;;;5001036;28;8904;-73
2022/10/28 10:39:31;;;;;;;;;7.00;7.00;;;;;;;;5000225;28;8851;-74
2022/10/28 10:41:59;;;;;;;;;8.20;4.80;;;;;;;;5003177;28;8913;-73
2022/10/28 10:44:32;;;;;;;;;8.60;5.80;;;;;;;;5001341;28;9013;-74
2022/10/28 10:47:21;;;;;;;;;5.40;5.40;;;;;;;;5004205;28;8873;-74
2022/10/28 10:49:50;;;;;;;;;8.60;5.00;;;;;;;;5003184;28;8922;-74
2022/10/28 10:52:24;;;;;;;;;6.20;6.20;;;;;;;;4986317;28;8864;-73
2022/10/28 10:55:01;;;;;;;;;7.40;5.60;;;;;;;;5003384;28;8839;-73
2022/10/28 10:57:29;;;;;;;;;4.80;4.80;;;;;;;;5003787;28;8832;-74
2022/10/28 10:59:57;;;;;;;;;6.20;6.20;;;;;;;;5001963;28;9029;-74
2022/10/28 11:02:27;;;;;;;;;7.40;5.00;;;;;;;;5003818;28;8854;-73
2022/10/28 11:04:56;;;;;;;;;4.20;4.20;;;;;;;;5002366;28;9680;-74
2022/10/28 11:07:27;;;;;;;;;4.40;4.40;;;;;;;;5001644;28;8863;-73
2022/10/28 11:09:55;;;;;;;;;6.60;6.60;;;;;;;;4986607;28;9010;-73
2022/10/28 11:12:27;;;;;;;;;4.40;4.40;;;;;;;;5002462;28;8855;-74
2022/10/28 11:14:56;;;;;;;;;7.80;5.80;;;;;;;;5001180;28;8808;-73
2022/10/28 11:17:26;;;;;;;;;7.80;5.80;;;;;;;;4999429;28;9637;-74
2022/10/28 11:19:56;;;;;;;;;8.40;7.80;;;;;;;;4991577;28;8807;-73
2022/10/28 11:22:37;;;;;;;;;8.60;5.20;;;;;;;;4969071;28;9099;-73
2022/10/28 11:25:24;;;;;;;;;7.40;5.80;;;;;;;;4972980;28;8841;-73
2022/10/28 11:28:00;;;;;;;;;4.80;3.60;;;;;;;;4988041;28;8831;-73
2022/10/28 11:30:36;;;;;;;;;6.00;5.00;;;;;;;;4988164;28;8961;-73
2022/10/28 11:33:08;;;;;;;;;8.80;4.20;;;;;;;;4982650;28;8843;-73
2022/10/28 11:35:53;;;;;;;;;7.40;5.40;;;;;;;;4971095;28;8881;-73
2022/10/28 11:38:32;;;;;;;;;5.40;5.40;;;;;;;;4985604;28;8949;-73
2022/10/28 11:41:14;;;;;;;;;4.20;4.20;;;;;;;;4989380;28;8825;-73
2022/10/28 11:43:49;;;;;;;;;4.40;4.40;;;;;;;;4991771;28;8965;-73
2022/10/28 11:46:25;;;;;;;;;5.40;5.40;;;;;;;;4967372;28;8862;-73
2022/10/28 11:49:20;;;;;;;;;6.20;6.20;;;;;;;;4984504;28;8871;-73
2022/10/28 11:51:53;;;;;;;;;1.80;1.20;;;;;;;;4986335;28;9008;-73
2022/10/28 11:54:41;;;;;;;;;7.20;5.20;;;;;;;;4968980;28;8842;-73
2022/10/28 11:57:12;;;;;;;;;8.80;5.20;;;;;;;;4983459;28;8823;-73
2022/10/28 12:00:07;;;;;;;;;3.00;1.00;;;;;;;;4985892;28;9632;-73
2022/10/28 12:02:58;;;;;;;;;6.20;5.20;;;;;;;;4982704;28;8850;-73
2022/10/28 12:05:30;;;;;;;;;7.00;6.40;;;;;;;;4974788;28;8846;-73
2022/10/28 12:08:13;;;;;;;;;8.60;5.20;;;;;;;;4987526;28;8977;-73
2022/10/28 12:10:52;;;;;;;;;6.20;4.40;;;;;;;;4970755;28;8875;-73
2022/10/28 12:13:26;;;;;;;;;3.60;3.60;;;;;;;;4985778;28;8869;-73
2022/10/28 12:15:59;;;;;;;;;6.20;4.60;;;;;;;;4969913;28;8881;-74
2022/10/28 12:18:32;;;;;;;;;4.80;4.60;;;;;;;;4995803;28;8904;-74
2022/10/28 12:21:04;;;;;;;;;2.20;2.20;;;;;;;;5000980;28;8915;-73
2022/10/28 12:23:35;;;;;;;;;7.00;5.00;;;;;;;;5001101;28;8989;-73
2022/10/28 12:26:06;;;;;;;;;3.80;2.80;;;;;;;;4982741;28;8851;-73
2022/10/28 12:28:40;;;;;;;;;4.80;3.80;;;;;;;;5004164;28;8877;-73
2022/10/28 12:31:19;;;;;;;;;3.20;3.20;;;;;;;;5004049;28;8825;-73
2022/10/28 12:33:50;;;;;;;;;4.00;4.00;;;;;;;;4972303;28;8889;-73
2022/10/28 12:36:25;;;;;;;;;2.60;2.60;;;;;;;;5006323;28;8840;-73
2022/10/28 12:38:57;;;;;;;;;4.40;4.40;;;;;;;;5005289;28;8856;-74
2022/10/28 12:41:31;;;;;;;;;4.00;4.00;;;;;;;;5005786;28;8856;-74
2022/10/28 12:44:02;;;;;;;;;3.80;3.80;;;;;;;;5006079;28;8987;-73
2022/10/28 12:46:35;;;;;;;;;4.20;4.20;;;;;;;;5006778;28;8884;-74
2022/10/28 12:49:09;;;;;;;;;3.40;3.40;;;;;;;;5004297;28;8858;-74
2022/10/28 12:51:39;;;;;;;;;4.20;4.20;;;;;;;;4983946;28;9653;-74
2022/10/28 12:54:20;;;;;;;;;4.00;4.00;;;;;;;;5006177;28;8868;-74
2022/10/28 12:56:53;;;;;;;;;4.20;3.20;;;;;;;;4989351;28;8831;-74
2022/10/28 12:59:26;;;;;;;;;6.20;3.80;;;;;;;;5004297;28;8853;-74
2022/10/28 13:01:54;;;;;;;;;3.60;3.60;;;;;;;;5003989;28;8833;-73
2022/10/28 13:04:22;;;;;;;;;4.40;4.40;;;;;;;;5005677;28;8921;-73
2022/10/28 13:07:23;;;;;;;;;3.40;3.40;;;;;;;;5006095;28;8933;-74
2022/10/28 13:10:02;;;;;;;;;6.00;5.00;;;;;;;;5003770;28;8966;-73
2022/10/28 13:13:00;;;;;;;;;4.80;3.60;;;;;;;;5001686;28;8969;-74
2022/10/28 13:15:45;;;;;;;;;6.20;5.40;;;;;;;;5005253;28;8963;-73
2022/10/28 13:18:52;;;;;;;;;7.00;5.60;;;;;;;;4993516;28;8856;-74
2022/10/28 13:21:29;;;;;;;;;7.40;5.00;;;;;;;;5003101;28;8860;-73
2022/10/28 13:24:02;;;;;;;;;6.40;6.40;;;;;;;;5004449;28;8863;-74
2022/10/28 13:26:31;;;;;;;;;5.40;4.00;;;;;;;;5005162;28;8856;-73
2022/10/28 13:29:02;;;;;;;;;7.40;4.60;;;;;;;;5004178;28;8860;-74
2022/10/28 13:31:38;;;;;;;;;4.40;4.40;;;;;;;;4988155;28;9543;-75
2022/10/28 13:34:06;;;;;;;;;6.00;3.40;;;;;;;;5005953;28;9622;-75
2022/10/28 13:36:35;;;;;;;;;6.00;4.20;;;;;;;;5004456;28;8905;-74
2022/10/28 13:39:05;;;;;;;;;5.00;3.40;;;;;;;;5001133;28;8840;-74
2022/10/28 13:41:37;;;;;;;;;4.80;4.80;;;;;;;;5004708;28;8876;-72
2022/10/28 13:44:29;;;;;;;;;5.20;3.00;;;;;;;;5000967;28;8863;-74
2022/10/28 13:47:25;;;;;;;;;3.20;3.20;;;;;;;;5003891;28;8848;-74
2022/10/28 13:50:16;;;;;;;;;5.60;5.60;;;;;;;;4988486;28;8874;-75
2022/10/28 13:52:45;;;;;;;;;4.20;4.20;;;;;;;;5003878;28;8868;-75
2022/10/28 13:55:25;;;;;;;;;4.60;4.60;;;;;;;;5005597;28;9809;-75
2022/10/28 13:58:00;;;;;;;;;4.40;4.40;;;;;;;;5003446;28;8861;-74
2022/10/28 14:00:38;;;;;;;;;8.40;5.20;;;;;;;;5002435;28;8841;-74
2022/10/28 14:03:06;;;;;;;;;7.00;6.00;;;;;;;;5000777;28;9655;-73
2022/10/28 14:05:55;;;;;;;;;8.80;5.40;;;;;;;;5001935;28;8864;-74
2022/10/28 14:08:28;;;;;;;;;8.20;7.00;;;;;;;;5002763;28;8952;-73
2022/10/28 14:11:04;;;;;;;;;5.80;5.80;;;;;;;;5002831;28;8840;-74
2022/10/28 14:13:34;;;;;;;;;4.40;4.40;;;;;;;;4999978;28;8845;-74
2022/10/28 14:16:37;;;;;;;;;6.20;4.80;;;;;;;;5003023;28;8845;-73
2022/10/28 14:19:17;;;;;;;;;6.00;6.00;;;;;;;;4923259;29;8866;-75
2022/10/28 14:21:48;;;;;;;;;12.80;7.00;;;;;;;;4940122;28;9676;-76
2022/10/28 14:24:33;;;;;;;;;6.60;6.40;;;;;;;;4940533;28;8855;-75
2022/10/28 14:27:29;;;;;;;;;7.00;7.00;;;;;;;;4984537;28;9755;-74
2022/10/28 14:30:22;;;;;;;;;7.20;5.40;;;;;;;;4956751;28;8843;-75
2022/10/28 14:33:30;;;;;;;;;8.40;7.00;;;;;;;;4983106;28;8857;-76
2022/10/28 14:36:19;;;;;;;;;6.80;6.80;;;;;;;;4985258;28;9624;-76
2022/10/28 14:39:23;;;;;;;;;6.80;6.80;;;;;;;;4966130;28;8854;-73
2022/10/28 14:42:04;;;;;;;;;5.20;5.20;;;;;;;;4979370;28;8845;-73
2022/10/28 14:44:51;;;;;;;;;9.40;7.80;;;;;;;;4983584;28;8869;-73
2022/10/28 14:47:45;;;;;;;;;7.60;7.00;;;;;;;;4982007;28;8840;-74
2022/10/28 14:50:19;;;;;;;;;9.40;8.00;;;;;;;;4982495;28;8844;-73
2022/10/28 14:52:49;;;;;;;;;6.40;6.40;;;;;;;;4984091;28;8850;-73
2022/10/28 14:55:25;;;;;;;;;8.40;7.40;;;;;;;;4980915;28;8901;-73
2022/10/28 14:57:54;;;;;;;;;11.00;8.00;;;;;;;;4981688;28;9667;-72
2022/10/28 15:00:28;;;;;;;;;9.80;7.20;;;;;;;;4982338;28;8854;-73
2022/10/28 15:02:56;;;;;;;;;7.80;5.60;;;;;;;;4982150;28;8854;-73
2022/10/28 15:05:24;;;;;;;;;7.60;7.20;;;;;;;;4982019;28;8852;-73
2022/10/28 15:07:56;;;;;;;;;7.40;5.80;;;;;;;;4980951;28;9658;-73
2022/10/28 15:10:28;;;;;;;;;8.80;8.80;;;;;;;;4983010;28;9218;-75
2022/10/28 15:12:57;;;;;;;;;6.40;6.40;;;;;;;;4964912;28;8847;-73
2022/10/28 15:15:26;;;;;;;;;7.00;7.00;;;;;;;;4982488;28;8865;-74
2022/10/28 15:17:54;;;;;;;;;9.80;7.00;;;;;;;;4986105;28;8809;-73
2022/10/28 15:20:23;;;;;;;;;9.00;7.40;;;;;;;;4986674;28;8973;-72
2022/10/28 15:22:53;;;;;;;;;8.40;7.00;;;;;;;;4984705;28;8850;-73
2022/10/28 15:25:22;;;;;;;;;8.00;8.00;;;;;;;;4987282;28;8807;-73
2022/10/28 15:27:52;;;;;;;;;7.00;7.00;;;;;;;;4984200;28;8842;-73
2022/10/28 15:30:22;;;;;;;;;7.00;6.40;;;;;;;;4984105;28;8842;-74